createdAt,value
2022-11-27T00:02:29.676Z,88.17
2022-11-27T00:05:07.325Z,87.63
2022-11-27T00:07:43.542Z,87.27
2022-11-27T00:10:19.627Z,84.80
2022-11-27T00:12:59.693Z,85.17
2022-11-27T00:15:39.861Z,87.40
2022-11-27T00:18:22.100Z,85.83
2022-11-27T00:21:04.054Z,87.30
2022-11-27T00:23:41.146Z,86.90
2022-11-27T00:26:23.954Z,84.80
2022-11-27T00:29:07.043Z,86.87
2022-11-27T00:31:50.261Z,85.93
2022-11-27T00:34:28.194Z,86.20
2022-11-27T00:37:12.206Z,86.63
2022-11-27T00:40:02.158Z,84.87
2022-11-27T00:42:41.359Z,85.60
2022-11-27T00:45:27.104Z,84.70
2022-11-27T00:48:04.041Z,86.53
2022-11-27T00:50:42.520Z,87.90
2022-11-27T00:53:20.289Z,86.33
2022-11-27T00:55:59.745Z,88.20
2022-11-27T00:58:41.817Z,86.00
2022-11-27T01:01:29.248Z,89.17
2022-11-27T01:04:13.241Z,87.57
2022-11-27T01:06:57.958Z,87.37
2022-11-27T01:09:38.397Z,85.93
2022-11-27T01:12:24.188Z,87.83
2022-11-27T01:15:03.900Z,90.37
2022-11-27T01:17:54.502Z,86.43
2022-11-27T01:20:37.048Z,91.23
2022-11-27T01:23:16.010Z,90.83
2022-11-27T01:25:58.952Z,85.97
2022-11-27T01:28:38.989Z,91.53
2022-11-27T01:31:21.861Z,90.57
2022-11-27T01:34:09.061Z,90.67
2022-11-27T01:36:48.895Z,100.20
2022-11-27T01:39:34.102Z,97.60
2022-11-27T01:42:20.744Z,92.90
2022-11-27T01:45:03.258Z,97.97
2022-11-27T01:47:59.766Z,92.67
2022-11-27T01:50:46.054Z,96.63
2022-11-27T01:53:36.512Z,98.07
2022-11-27T01:56:25.559Z,93.17
2022-11-27T01:59:14.153Z,94.83
2022-11-27T02:01:58.033Z,92.87
2022-11-27T02:04:36.862Z,96.33
2022-11-27T02:07:24.687Z,98.20
2022-11-27T02:10:08.616Z,96.80
2022-11-27T02:13:00.093Z,96.77
2022-11-27T02:15:55.859Z,94.30
2022-11-27T02:18:46.318Z,112.23
2022-11-27T02:21:32.063Z,97.53
2022-11-27T02:24:55.646Z,94.03
2022-11-27T02:28:16.212Z,94.50
2022-11-27T02:31:11.001Z,95.57
2022-11-27T02:34:02.290Z,95.03
2022-11-27T02:36:53.181Z,92.07
2022-11-27T02:39:41.766Z,90.80
2022-11-27T02:42:39.843Z,94.87
2022-11-27T02:45:23.027Z,90.47
2022-11-27T02:48:08.402Z,92.20
2022-11-27T02:50:57.953Z,91.93
2022-11-27T02:53:40.209Z,94.57
2022-11-27T02:56:23.318Z,93.13
2022-11-27T02:59:15.770Z,95.13
2022-11-27T03:01:58.707Z,91.57
2022-11-27T03:04:46.562Z,94.97
2022-11-27T03:07:43.937Z,94.47
2022-11-27T03:10:29.825Z,96.93
2022-11-27T03:13:23.771Z,95.40
2022-11-27T03:16:12.212Z,96.90
2022-11-27T03:19:07.700Z,100.37
2022-11-27T03:21:51.360Z,96.80
2022-11-27T03:24:34.067Z,97.83
2022-11-27T03:27:19.336Z,97.80
2022-11-27T03:30:05.500Z,98.30
2022-11-27T03:32:46.501Z,99.10
2022-11-27T03:35:27.685Z,102.83
2022-11-27T03:38:15.527Z,101.93
2022-11-27T03:41:01.954Z,104.87
2022-11-27T03:43:45.114Z,101.50
2022-11-27T03:46:38.258Z,100.97
2022-11-27T03:49:30.494Z,99.17
2022-11-27T03:52:14.718Z,98.30
2022-11-27T03:55:06.704Z,98.63
2022-11-27T03:57:59.965Z,95.97
2022-11-27T04:00:54.281Z,97.20
2022-11-27T04:03:33.548Z,96.13
2022-11-27T04:06:15.823Z,95.10
2022-11-27T04:08:57.540Z,97.63
2022-11-27T04:11:41.499Z,100.07
2022-11-27T04:14:20.678Z,103.37
2022-11-27T04:17:01.095Z,95.43
2022-11-27T04:19:57.228Z,95.90
2022-11-27T04:22:49.121Z,95.20
2022-11-27T04:25:30.346Z,94.27
2022-11-27T04:28:37.367Z,93.37
2022-11-27T04:31:21.120Z,95.03
2022-11-27T04:34:00.056Z,96.53
2022-11-27T04:36:44.053Z,94.63
2022-11-27T04:39:22.378Z,94.63
2022-11-27T04:42:04.070Z,93.77
2022-11-27T04:44:50.161Z,93.70
2022-11-27T04:47:35.782Z,91.40
2022-11-27T04:50:13.985Z,94.20
2022-11-27T04:53:02.351Z,96.50
2022-11-27T04:55:44.406Z,95.70
2022-11-27T04:58:21.758Z,94.90
2022-11-27T05:01:04.101Z,95.60
2022-11-27T05:03:54.900Z,91.07
2022-11-27T05:06:46.333Z,87.77
2022-11-27T05:09:26.528Z,92.00
2022-11-27T05:12:07.909Z,89.07
2022-11-27T05:15:57.835Z,89.00
2022-11-27T05:22:27.334Z,84.83
2022-11-27T05:25:06.921Z,89.90
2022-11-27T05:27:46.563Z,86.63
2022-11-27T05:30:26.579Z,89.03
2022-11-27T05:33:09.261Z,88.10
2022-11-27T05:35:52.486Z,84.97
2022-11-27T05:38:36.874Z,85.77
2022-11-27T05:41:17.547Z,87.63
2022-11-27T05:44:00.373Z,87.63
2022-11-27T05:46:40.528Z,88.83
2022-11-27T05:49:21.650Z,87.13
2022-11-27T05:52:19.352Z,87.40
2022-11-27T05:55:04.110Z,87.40
2022-11-27T05:57:51.725Z,82.80
2022-11-27T06:00:32.522Z,83.50
2022-11-27T06:03:17.065Z,85.50
2022-11-27T06:05:58.332Z,86.27
2022-11-27T06:08:46.426Z,87.70
2022-11-27T06:11:27.300Z,85.37
2022-11-27T06:14:15.742Z,82.07
2022-11-27T06:17:03.113Z,84.90
2022-11-27T06:19:49.688Z,83.40
2022-11-27T06:22:30.619Z,84.30
2022-11-27T06:25:22.386Z,83.83
2022-11-27T06:28:02.600Z,84.27
2022-11-27T06:30:41.428Z,91.27
2022-11-27T06:33:20.344Z,86.40
2022-11-27T06:36:03.667Z,87.40
2022-11-27T06:38:46.215Z,86.50
2022-11-27T06:41:40.611Z,89.03
2022-11-27T06:44:31.230Z,88.50
2022-11-27T06:47:19.455Z,85.70
2022-11-27T06:49:57.826Z,83.73
2022-11-27T06:52:40.658Z,85.47
2022-11-27T06:55:26.294Z,83.73
2022-11-27T06:58:18.503Z,84.10
2022-11-27T07:01:11.078Z,82.43
2022-11-27T07:03:51.469Z,84.37
2022-11-27T07:06:34.233Z,86.23
2022-11-27T07:09:13.987Z,89.37
2022-11-27T07:12:07.697Z,89.10
2022-11-27T07:15:04.562Z,93.20
2022-11-27T07:17:47.944Z,91.97
2022-11-27T07:20:25.501Z,87.17
2022-11-27T07:23:04.755Z,86.70
2022-11-27T07:25:48.716Z,85.37
2022-11-27T07:28:43.159Z,86.97
2022-11-27T07:31:34.750Z,83.37
2022-11-27T07:34:21.576Z,82.13
2022-11-27T07:37:07.910Z,80.80
2022-11-27T07:40:02.048Z,84.93
2022-11-27T07:42:57.508Z,84.00
2022-11-27T07:45:43.545Z,78.53
2022-11-27T07:48:32.254Z,79.80
2022-11-27T07:51:16.178Z,80.27
2022-11-27T07:54:02.817Z,79.47
2022-11-27T07:56:44.025Z,78.70
2022-11-27T07:59:25.223Z,78.03
2022-11-27T08:02:08.179Z,78.07
2022-11-27T08:04:54.931Z,79.27
2022-11-27T08:07:48.336Z,76.60
2022-11-27T08:10:38.219Z,78.73
2022-11-27T08:13:22.307Z,78.73
2022-11-27T08:16:07.180Z,78.23
2022-11-27T08:19:09.637Z,77.57
2022-11-27T08:21:51.449Z,78.87
2022-11-27T08:24:29.188Z,81.63
2022-11-27T08:27:10.658Z,81.13
2022-11-27T08:29:49.112Z,79.20
2022-11-27T08:32:27.978Z,79.43
2022-11-27T08:35:05.613Z,79.13
2022-11-27T08:38:00.412Z,79.90
2022-11-27T08:41:00.417Z,76.10
2022-11-27T08:43:53.733Z,78.90
2022-11-27T08:46:40.801Z,78.17
2022-11-27T08:49:26.793Z,77.30
2022-11-27T08:52:09.250Z,75.50
2022-11-27T08:55:07.305Z,79.87
2022-11-27T08:57:53.362Z,78.43
2022-11-27T09:00:45.059Z,79.87
2022-11-27T09:03:40.727Z,78.97
2022-11-27T09:06:24.022Z,77.97
2022-11-27T09:09:13.116Z,79.20
2022-11-27T09:11:54.857Z,79.80
2022-11-27T09:14:36.283Z,79.70
2022-11-27T09:17:18.683Z,77.40
2022-11-27T09:20:04.786Z,79.10
2022-11-27T09:22:42.602Z,78.23
2022-11-27T09:25:23.077Z,80.73
2022-11-27T09:28:12.093Z,81.00
2022-11-27T09:30:52.909Z,78.40
2022-11-27T09:33:37.763Z,78.77
2022-11-27T09:36:24.723Z,80.87
2022-11-27T09:39:07.250Z,81.00
2022-11-27T09:42:00.603Z,81.47
2022-11-27T09:44:50.450Z,80.23
2022-11-27T09:47:36.168Z,80.40
2022-11-27T09:50:22.007Z,80.97
2022-11-27T09:53:15.982Z,78.93
2022-11-27T09:56:01.497Z,79.93
2022-11-27T09:58:45.814Z,81.10
2022-11-27T10:01:56.488Z,79.03
2022-11-27T10:05:05.853Z,81.73
2022-11-27T10:07:48.843Z,77.77
2022-11-27T10:10:42.279Z,80.87
2022-11-27T10:13:35.429Z,79.37
2022-11-27T10:16:22.044Z,80.03
2022-11-27T10:19:09.133Z,80.60
2022-11-27T10:21:54.127Z,80.40
2022-11-27T10:24:49.528Z,80.93
2022-11-27T10:27:30.198Z,80.53
2022-11-27T10:30:25.186Z,83.03
2022-11-27T10:33:20.169Z,81.30
2022-11-27T10:36:01.980Z,82.67
2022-11-27T10:38:46.719Z,81.93
2022-11-27T10:41:50.435Z,81.63
2022-11-27T10:44:38.215Z,83.10
2022-11-27T10:47:34.042Z,91.70
2022-11-27T10:50:24.547Z,96.63
2022-11-27T10:53:22.339Z,95.30
2022-11-27T10:56:44.118Z,97.17
2022-11-27T10:59:27.699Z,99.23
2022-11-27T11:02:11.517Z,96.37
2022-11-27T11:05:30.806Z,97.73
2022-11-27T11:08:18.583Z,96.67
2022-11-27T11:11:10.698Z,99.10
2022-11-27T11:13:54.421Z,97.30
2022-11-27T11:16:41.346Z,97.30
2022-11-27T11:19:36.352Z,98.03
2022-11-27T11:22:24.426Z,96.30
2022-11-27T11:25:11.274Z,97.47
2022-11-27T11:28:03.520Z,98.90
2022-11-27T11:30:46.129Z,100.97
2022-11-27T11:33:25.066Z,102.57
2022-11-27T11:36:20.786Z,102.17
2022-11-27T11:39:07.142Z,100.37
2022-11-27T11:41:57.635Z,103.07
2022-11-27T11:44:53.888Z,107.47
2022-11-27T11:47:41.507Z,108.73
2022-11-27T11:50:39.166Z,109.83
2022-11-27T11:53:25.155Z,112.97
2022-11-27T11:56:11.979Z,112.03
2022-11-27T11:59:08.254Z,112.73
2022-11-27T12:02:21.877Z,110.93
2022-11-27T12:05:34.757Z,110.97
2022-11-27T12:08:42.851Z,110.43
2022-11-27T12:11:24.097Z,107.60
2022-11-27T12:14:20.523Z,111.00
2022-11-27T12:17:28.612Z,111.80
2022-11-27T12:20:30.019Z,110.77
2022-11-27T12:23:37.487Z,108.53
2022-11-27T12:26:38.968Z,109.80
2022-11-27T12:29:47.466Z,110.70
2022-11-27T12:32:52.796Z,112.20
2022-11-27T12:35:59.424Z,110.43
2022-11-27T12:39:06.940Z,113.50
2022-11-27T12:42:02.258Z,108.63
2022-11-27T12:44:49.877Z,114.40
2022-11-27T12:47:48.502Z,110.83
2022-11-27T12:50:50.250Z,107.83
2022-11-27T12:53:43.049Z,110.50
2022-11-27T12:56:35.515Z,112.47
2022-11-27T12:59:22.499Z,109.23
2022-11-27T13:02:24.558Z,111.27
2022-11-27T13:05:16.057Z,112.27
2022-11-27T13:08:00.774Z,112.40
2022-11-27T13:10:52.625Z,112.33
2022-11-27T13:13:40.730Z,108.67
2022-11-27T13:16:36.308Z,108.43
2022-11-27T13:19:41.217Z,105.13
2022-11-27T13:22:45.919Z,105.60
2022-11-27T13:25:28.330Z,109.60
2022-11-27T13:28:17.521Z,104.33
2022-11-27T13:31:09.073Z,107.30
2022-11-27T13:33:52.515Z,105.40
2022-11-27T13:36:44.708Z,108.03
2022-11-27T13:39:51.702Z,103.97
2022-11-27T13:42:31.344Z,106.30
2022-11-27T13:45:24.020Z,106.20
2022-11-27T13:48:10.420Z,106.60
2022-11-27T13:51:08.458Z,104.03
2022-11-27T13:53:58.114Z,102.37
2022-11-27T13:56:48.277Z,102.63
2022-11-27T13:59:39.316Z,103.33
2022-11-27T14:02:27.248Z,103.57
2022-11-27T14:05:17.912Z,102.40
2022-11-27T14:07:59.508Z,103.13
2022-11-27T14:10:48.569Z,101.83
2022-11-27T14:13:45.267Z,101.77
2022-11-27T14:16:49.698Z,98.20
2022-11-27T14:19:50.056Z,99.70
2022-11-27T14:23:11.242Z,100.10
2022-11-27T14:25:49.699Z,99.97
2022-11-27T14:28:37.160Z,99.60
2022-11-27T14:32:00.413Z,98.53
2022-11-27T14:34:42.594Z,95.03
2022-11-27T14:37:39.526Z,98.10
2022-11-27T14:40:40.815Z,93.83
2022-11-27T14:43:34.478Z,95.43
2022-11-27T14:46:23.454Z,93.40
2022-11-27T14:49:05.676Z,93.57
2022-11-27T14:51:46.131Z,93.47
2022-11-27T14:54:43.749Z,95.00
2022-11-27T14:57:43.408Z,94.73
2022-11-27T15:00:29.193Z,91.30
2022-11-27T15:03:23.603Z,94.83
2022-11-27T15:06:12.548Z,92.60
2022-11-27T15:09:30.603Z,90.90
2022-11-27T15:12:24.244Z,89.43
2022-11-27T15:15:06.667Z,85.67
2022-11-27T15:17:50.203Z,87.57
2022-11-27T15:20:44.156Z,87.60
2022-11-27T15:23:26.359Z,84.57
2022-11-27T15:26:25.785Z,85.80
2022-11-27T15:29:15.782Z,87.57
2022-11-27T15:32:09.424Z,87.17
2022-11-27T15:34:48.568Z,85.90
2022-11-27T15:37:40.937Z,91.33
2022-11-27T15:40:37.978Z,86.87
2022-11-27T15:43:28.074Z,83.70
2022-11-27T15:46:16.420Z,84.70
2022-11-27T15:49:01.688Z,83.47
2022-11-27T15:51:42.014Z,86.77
2022-11-27T15:54:25.252Z,86.87
2022-11-27T15:57:07.378Z,85.40
2022-11-27T15:59:58.974Z,88.30
2022-11-27T16:02:42.201Z,87.00
2022-11-27T16:05:20.876Z,91.80
2022-11-27T16:08:07.254Z,88.30
2022-11-27T16:10:54.994Z,90.07
2022-11-27T16:13:33.784Z,92.40
2022-11-27T16:16:21.107Z,97.40
2022-11-27T16:19:08.993Z,94.97
2022-11-27T16:21:53.258Z,91.00
2022-11-27T16:24:43.889Z,94.87
2022-11-27T16:27:24.466Z,88.43
2022-11-27T16:30:02.788Z,89.47
2022-11-27T16:33:00.138Z,88.53
2022-11-27T16:35:40.323Z,88.07
2022-11-27T16:38:20.256Z,88.63
2022-11-27T16:41:07.535Z,85.17
2022-11-27T16:43:51.466Z,88.07
2022-11-27T16:46:38.600Z,86.63
2022-11-27T16:49:25.269Z,89.50
2022-11-27T16:52:03.117Z,91.03
2022-11-27T16:54:44.008Z,89.87
2022-11-27T16:57:22.217Z,89.10
2022-11-27T17:00:05.011Z,88.50
2022-11-27T17:02:45.162Z,87.13
2022-11-27T17:05:23.638Z,89.53
2022-11-27T17:08:13.873Z,85.60
2022-11-27T17:10:51.713Z,89.77
2022-11-27T17:13:30.868Z,88.50
2022-11-27T17:16:14.118Z,86.13
2022-11-27T17:19:12.502Z,85.83
2022-11-27T17:21:51.556Z,84.60
2022-11-27T17:24:42.052Z,86.27
2022-11-27T17:27:23.766Z,84.63
2022-11-27T17:30:06.330Z,83.60
2022-11-27T17:32:54.526Z,83.70
2022-11-27T17:35:34.102Z,84.57
2022-11-27T17:38:22.968Z,85.10
2022-11-27T17:41:06.379Z,84.03
2022-11-27T17:43:48.607Z,82.83
2022-11-27T17:46:32.925Z,81.53
2022-11-27T17:49:13.867Z,81.17
2022-11-27T17:52:03.286Z,81.60
2022-11-27T17:54:55.578Z,82.63
2022-11-27T17:57:34.150Z,78.33
2022-11-27T18:00:14.759Z,78.00
2022-11-27T18:02:52.843Z,83.47
2022-11-27T18:05:36.379Z,80.83
2022-11-27T18:08:15.738Z,80.10
2022-11-27T18:10:55.939Z,85.00
2022-11-27T18:13:43.082Z,83.53
2022-11-27T18:16:22.950Z,83.90
2022-11-27T18:19:00.655Z,82.43
2022-11-27T18:21:40.871Z,80.83
2022-11-27T18:24:23.964Z,81.03
2022-11-27T18:27:09.898Z,82.20
2022-11-27T18:29:51.501Z,82.53
2022-11-27T18:32:30.160Z,81.50
2022-11-27T18:35:06.546Z,81.97
2022-11-27T18:37:48.144Z,80.70
2022-11-27T18:40:26.033Z,84.30
2022-11-27T18:43:06.127Z,83.23
2022-11-27T18:45:43.838Z,84.47
2022-11-27T18:48:20.415Z,84.30
2022-11-27T18:50:58.048Z,85.03
2022-11-27T18:53:37.273Z,84.70
2022-11-27T18:56:17.097Z,84.47
2022-11-27T18:58:55.426Z,85.50
2022-11-27T19:01:40.970Z,85.93
2022-11-27T19:04:19.586Z,85.47
2022-11-27T19:06:56.359Z,85.13
2022-11-27T19:09:36.641Z,86.30
2022-11-27T19:12:17.933Z,86.07
2022-11-27T19:14:54.676Z,84.87
2022-11-27T19:17:33.529Z,84.47
2022-11-27T19:20:10.582Z,85.57
2022-11-27T19:22:47.406Z,86.30
2022-11-27T19:25:26.743Z,82.10
2022-11-27T19:28:02.804Z,87.80
2022-11-27T19:30:39.946Z,83.60
2022-11-27T19:33:17.450Z,83.43
2022-11-27T19:35:54.439Z,84.87
2022-11-27T19:38:31.124Z,84.43
2022-11-27T19:41:13.900Z,85.50
2022-11-27T19:43:50.972Z,85.20
2022-11-27T19:46:29.519Z,83.77
2022-11-27T19:49:07.540Z,85.57
2022-11-27T19:51:45.496Z,83.37
2022-11-27T19:54:23.010Z,85.47
2022-11-27T19:57:06.076Z,85.07
2022-11-27T19:59:44.475Z,81.73
2022-11-27T20:02:22.074Z,83.90
2022-11-27T20:04:59.753Z,83.57
2022-11-27T20:07:36.467Z,84.93
2022-11-27T20:10:14.766Z,83.50
2022-11-27T20:12:54.193Z,85.70
2022-11-27T20:15:30.644Z,84.70
2022-11-27T20:18:06.910Z,85.83
2022-11-27T20:20:44.171Z,85.30
2022-11-27T20:23:21.404Z,84.17
2022-11-27T20:25:58.378Z,86.13
2022-11-27T20:28:37.717Z,87.27
2022-11-27T20:31:18.204Z,87.93
2022-11-27T20:33:54.073Z,88.23
2022-11-27T20:36:31.854Z,86.47
2022-11-27T20:39:08.408Z,86.57
2022-11-27T20:41:44.923Z,90.07
2022-11-27T20:44:24.057Z,90.57
2022-11-27T20:47:01.410Z,88.27
2022-11-27T20:49:39.918Z,88.17
2022-11-27T20:52:17.008Z,87.67
2022-11-27T20:54:53.339Z,86.40
2022-11-27T20:57:30.028Z,88.63
2022-11-27T21:00:08.027Z,91.37
2022-11-27T21:02:46.595Z,94.53
2022-11-27T21:05:22.687Z,94.80
2022-11-27T21:08:02.223Z,98.40
2022-11-27T21:10:39.075Z,97.17
2022-11-27T21:13:16.354Z,97.43
2022-11-27T21:15:57.942Z,99.50
2022-11-27T21:18:33.359Z,95.23
2022-11-27T21:21:13.355Z,97.13
2022-11-27T21:23:49.907Z,95.37
2022-11-27T21:26:27.588Z,98.77
2022-11-27T21:29:04.675Z,95.87
2022-11-27T21:31:46.765Z,93.07
2022-11-27T21:34:24.255Z,94.90
2022-11-27T21:37:01.222Z,93.03
2022-11-27T21:39:38.286Z,93.20
2022-11-27T21:42:15.413Z,86.77
2022-11-27T21:44:52.556Z,90.53
2022-11-27T21:47:30.785Z,91.00
2022-11-27T21:50:08.988Z,86.23
2022-11-27T21:52:46.511Z,88.03
2022-11-27T21:55:23.061Z,84.73
2022-11-27T21:57:59.693Z,83.97
2022-11-27T22:00:36.526Z,83.20
2022-11-27T22:03:16.370Z,84.93
2022-11-27T22:05:53.333Z,81.77
2022-11-27T22:08:30.183Z,82.83
2022-11-27T22:11:06.840Z,81.80
2022-11-27T22:13:43.842Z,79.30
2022-11-27T22:16:22.370Z,77.70
2022-11-27T22:19:02.065Z,75.87
2022-11-27T22:21:40.329Z,73.90
2022-11-27T22:24:19.761Z,72.47
2022-11-27T22:27:01.187Z,70.50
2022-11-27T22:29:38.619Z,76.13
2022-11-27T22:32:16.178Z,74.53
2022-11-27T22:34:56.244Z,71.67
2022-11-27T22:37:32.997Z,70.17
2022-11-27T22:40:10.334Z,69.27
2022-11-27T22:42:47.189Z,70.20
2022-11-27T22:45:24.840Z,66.73
2022-11-27T22:48:02.753Z,67.63
2022-11-27T22:50:42.520Z,68.07
2022-11-27T22:53:19.703Z,72.13
2022-11-27T22:55:56.825Z,70.97
2022-11-27T22:58:35.202Z,73.77
2022-11-27T23:01:19.250Z,67.83
2022-11-27T23:04:00.214Z,67.47
2022-11-27T23:06:38.818Z,68.60
2022-11-27T23:09:16.747Z,66.97
2022-11-27T23:11:53.272Z,70.10
2022-11-27T23:14:30.867Z,71.53
2022-11-27T23:17:08.120Z,70.03
2022-11-27T23:19:45.601Z,73.37
2022-11-27T23:22:23.870Z,69.40
2022-11-27T23:25:02.209Z,64.50
2022-11-27T23:27:38.652Z,65.63
2022-11-27T23:30:16.794Z,65.93
2022-11-27T23:32:56.579Z,65.23
2022-11-27T23:35:34.195Z,66.30
2022-11-27T23:38:14.104Z,62.33
2022-11-27T23:40:50.793Z,63.70
2022-11-27T23:43:28.299Z,64.00
2022-11-27T23:46:09.002Z,60.23
2022-11-27T23:48:51.240Z,59.93
2022-11-27T23:51:31.304Z,58.10
2022-11-27T23:54:14.388Z,55.27
2022-11-27T23:56:51.482Z,54.33
2022-11-27T23:59:28.918Z,56.33
